Torpshammar, Sweden

8:19 PM CEST on September 02, 2014 (GMT +0200)
Sundsvall-Harnosand | Change Station
CLOSE
Current Station
Airport
Location: Sundsvall-Harnosand Airpor,
Elevation: 10 ft
Nearby Weather Stations

Elev 10 ft 62.53 °N, 17.44 °E | Updated 59 minutes ago

Clear
Clear
61 °F
Feels Like 61 °F
N
5
Wind Variable Wind from East

Today
High -- | Low -- °F
--% Chance of Precip.
Yesterday
High -- | Low -- °F
Precip. -- in
5:44 AM 8:02 PM
First Quarter, 53% visible
Pressure 30.15 in
Visibility -9999.0 miles
Clouds
Dew Point 54 °F
Humidity 77%
Rainfall 0.00 in
Snow Depth Not available.
UV Not available.
Pollen Not available.
Air Quality Not available.
Flu Activity Not available.
METAR ESNN 021720Z 09004KT CAVOK 16/12 Q1021

More Conditions Fewer Conditions

Pressure 30.15 in
Visibility -9999.0 miles
Clouds
Dew Point 54 °F
Humidity 77%
Rainfall 0.00 in
Snow Depth Not available.
UV Not available.
Pollen Not available.
Air Quality Not available.
Flu Activity Not available.
METAR ESNN 021720Z 09004KT CAVOK 16/12 Q1021

More Conditions Fewer Conditions

10-Day Weather Forecast

Almanac

Astronomy

Sep. 02, 2014 Rise Set
Actual Time 5:44 AM CEST 8:02 PM CEST
Civil Twilight 4:55 AM CEST 8:51 PM CEST
Nautical Twilight 3:49 AM CEST 9:56 PM CEST
Astronomical Twilight 2:10 AM CEST 11:31 PM CEST
Moon 3:26 PM CEST 10:24 PM CEST
Length of Visible Light 15h 56m
Length of Day
14h 17m
Tomorrow will be 6m 0s shorter.
First Quarter, 53% of the Moon is Illuminated
Today
First Quarter
Sep 8
Full
Sep 15
Last Quarter
Sep 24
New
Oct 1
First Quarter

Today's Extremes

Country Highs Country Lows

Community

WunderPhotos

Upload Photos

1,749,723 photos uploaded!

WunderBlogs® & News

Nearby

Snow Depth

Not available.

Earthquake Activity

City Distance Mag. Time & Date
No recent earthquake activity has been reported nearby.
Minimum magnitude displayed is 2.5.

Coastal Water Temperatures

Place Temperature
No Stations Reporting

Nearby Weather Stations